createdAt,value
2023-03-17T00:01:44.563Z,100938.46
2023-03-17T00:04:12.661Z,100934.34
2023-03-17T00:06:41.326Z,100932.39
2023-03-17T00:09:14.640Z,100928.33
2023-03-17T00:11:42.787Z,100927.54
2023-03-17T00:14:11.177Z,100920.63
2023-03-17T00:16:43.670Z,100914.46
2023-03-17T00:19:32.113Z,100917.13
2023-03-17T00:22:00.939Z,100915.86
2023-03-17T00:24:29.303Z,100919.33
2023-03-17T00:26:57.242Z,100923.39
2023-03-17T00:29:25.443Z,100919.94
2023-03-17T00:31:53.494Z,100918.90
2023-03-17T00:34:23.284Z,100918.11
2023-03-17T00:36:51.158Z,100921.41
2023-03-17T00:39:19.249Z,100918.30
2023-03-17T00:44:14.981Z,100918.13
2023-03-17T00:46:42.762Z,100916.83
2023-03-17T00:49:15.595Z,100914.63
2023-03-17T00:51:44.700Z,100910.10
2023-03-17T00:54:13.515Z,100911.14
2023-03-17T00:56:42.215Z,100910.42
2023-03-17T00:59:21.783Z,100914.33
2023-03-17T01:01:49.844Z,100909.90
2023-03-17T01:04:18.493Z,100912.23
2023-03-17T01:06:48.125Z,100914.16
2023-03-17T01:09:16.796Z,100915.11
2023-03-17T01:11:44.602Z,100911.38
2023-03-17T01:14:12.867Z,100905.70
2023-03-17T01:16:40.685Z,100906.80
2023-03-17T01:19:09.390Z,100908.60
2023-03-17T01:21:37.579Z,100910.13
2023-03-17T01:24:05.759Z,100902.96
2023-03-17T01:26:33.445Z,100900.05
2023-03-17T01:29:01.077Z,100902.99
2023-03-17T01:31:29.486Z,100906.48
2023-03-17T01:33:57.825Z,100905.90
2023-03-17T01:36:25.535Z,100899.65
2023-03-17T01:38:53.693Z,100894.05
2023-03-17T01:41:21.406Z,100889.41
2023-03-17T01:43:49.837Z,100887.77
2023-03-17T01:46:17.705Z,100885.71
2023-03-17T01:48:47.941Z,100892.78
2023-03-17T01:51:18.533Z,100893.29
2023-03-17T01:53:48.159Z,100898.44
2023-03-17T01:56:16.860Z,100899.77
2023-03-17T01:58:46.555Z,100905.86
2023-03-17T02:01:14.346Z,100902.03
2023-03-17T02:03:42.475Z,100903.79
2023-03-17T02:06:10.083Z,100899.55
2023-03-17T02:08:37.686Z,100894.80
2023-03-17T02:11:06.810Z,100899.45
2023-03-17T02:13:34.889Z,100906.44
2023-03-17T02:16:02.546Z,100900.75
2023-03-17T02:18:30.242Z,100898.03
2023-03-17T02:20:58.887Z,100903.48
2023-03-17T02:23:26.470Z,100901.64
2023-03-17T02:25:54.093Z,100897.76
2023-03-17T02:28:25.919Z,100901.55
2023-03-17T02:30:53.625Z,100903.52
2023-03-17T02:33:21.384Z,100907.88
2023-03-17T02:35:49.135Z,100915.16
2023-03-17T02:38:17.347Z,100919.23
2023-03-17T02:40:45.222Z,100919.33
2023-03-17T02:43:13.088Z,100917.54
2023-03-17T02:45:41.582Z,100918.81
2023-03-17T02:48:13.121Z,100916.41
2023-03-17T02:50:40.728Z,100915.02
2023-03-17T02:53:08.388Z,100914.29
2023-03-17T02:55:36.152Z,100917.75
2023-03-17T02:58:04.210Z,100917.33
2023-03-17T03:00:32.706Z,100908.92
2023-03-17T03:03:00.760Z,100908.58
2023-03-17T03:05:28.840Z,100903.58
2023-03-17T03:07:56.489Z,100905.86
2023-03-17T03:10:24.168Z,100901.94
2023-03-17T03:12:52.018Z,100897.42
2023-03-17T03:15:20.805Z,100893.48
2023-03-17T03:17:48.511Z,100884.83
2023-03-17T03:20:16.610Z,100879.41
2023-03-17T03:22:44.286Z,100875.51
2023-03-17T03:25:12.474Z,100878.59
2023-03-17T03:27:40.097Z,100878.86
2023-03-17T03:30:10.598Z,100881.71
2023-03-17T03:32:38.344Z,100886.84
2023-03-17T03:35:06.461Z,100887.48
2023-03-17T03:37:34.138Z,100887.64
2023-03-17T03:40:02.132Z,100887.81
2023-03-17T03:42:29.806Z,100893.47
2023-03-17T03:44:57.471Z,100895.23
2023-03-17T03:47:25.168Z,100891.21
2023-03-17T03:49:52.745Z,100883.88
2023-03-17T03:52:20.904Z,100872.68
2023-03-17T03:54:48.608Z,100868.27
2023-03-17T03:57:16.301Z,100870.35
2023-03-17T03:59:44.000Z,100865.59
2023-03-17T04:02:11.610Z,100861.84
2023-03-17T04:04:39.338Z,100860.30
2023-03-17T04:07:08.176Z,100859.20
2023-03-17T04:09:36.380Z,100858.36
2023-03-17T04:12:05.969Z,100867.20
2023-03-17T04:14:33.824Z,100873.29
2023-03-17T04:17:01.682Z,100878.45
2023-03-17T04:19:29.365Z,100887.11
2023-03-17T04:21:56.949Z,100894.16
2023-03-17T04:24:25.104Z,100902.30
2023-03-17T04:26:53.163Z,100900.15
2023-03-17T04:29:20.826Z,100900.46
2023-03-17T04:31:48.522Z,100910.38
2023-03-17T04:34:18.685Z,100912.90
2023-03-17T04:36:47.342Z,100908.92
2023-03-17T04:39:15.687Z,100910.44
2023-03-17T04:41:43.382Z,100912.19
2023-03-17T04:44:10.996Z,100909.91
2023-03-17T04:46:38.641Z,100901.55
2023-03-17T04:49:06.947Z,100906.52
2023-03-17T04:51:36.812Z,100905.49
2023-03-17T04:54:05.440Z,100904.98
2023-03-17T04:56:33.093Z,100908.33
2023-03-17T04:59:00.731Z,100899.48
2023-03-17T05:01:28.412Z,100897.38
2023-03-17T05:03:56.333Z,100898.40
2023-03-17T05:06:24.219Z,100900.37
2023-03-17T05:08:52.852Z,100898.06
2023-03-17T05:11:20.486Z,100896.31
2023-03-17T05:13:48.318Z,100889.93
2023-03-17T05:16:16.367Z,100888.98
2023-03-17T05:18:44.744Z,100891.48
2023-03-17T05:21:12.481Z,100898.46
2023-03-17T05:23:40.884Z,100908.01
2023-03-17T05:26:08.682Z,100904.44
2023-03-17T05:28:36.431Z,100899.30
2023-03-17T05:31:04.199Z,100903.20
2023-03-17T05:33:31.898Z,100900.34
2023-03-17T05:35:59.587Z,100900.06
2023-03-17T05:38:27.572Z,100906.55
2023-03-17T05:40:55.450Z,100918.49
2023-03-17T05:43:23.303Z,100927.89
2023-03-17T05:45:50.993Z,100926.20
2023-03-17T05:48:18.685Z,100922.92
2023-03-17T05:50:46.335Z,100921.64
2023-03-17T05:53:14.107Z,100919.39
2023-03-17T05:55:42.240Z,100915.88
2023-03-17T05:58:09.875Z,100915.95
2023-03-17T06:00:37.676Z,100918.31
2023-03-17T06:03:05.542Z,100919.90
2023-03-17T06:05:33.883Z,100916.56
2023-03-17T06:08:01.894Z,100912.11
2023-03-17T06:10:29.816Z,100911.42
2023-03-17T06:12:58.864Z,100904.45
2023-03-17T06:15:26.821Z,100897.73
2023-03-17T06:17:54.604Z,100894.61
2023-03-17T06:20:22.349Z,100895.60
2023-03-17T06:23:03.267Z,100907.16
2023-03-17T06:25:32.719Z,100911.09
2023-03-17T06:28:02.873Z,100908.80
2023-03-17T06:30:34.572Z,100904.20
2023-03-17T06:33:02.931Z,100905.96
2023-03-17T06:35:31.721Z,100901.91
2023-03-17T06:38:00.723Z,100905.27
2023-03-17T06:40:28.745Z,100909.73
2023-03-17T06:42:56.520Z,100911.66
2023-03-17T06:45:24.372Z,100911.34
2023-03-17T06:47:52.444Z,100911.63
2023-03-17T06:50:20.270Z,100911.38
2023-03-17T06:52:49.120Z,100911.46
2023-03-17T06:55:17.511Z,100909.44
2023-03-17T06:57:45.761Z,100914.60
2023-03-17T07:00:14.230Z,100913.35
2023-03-17T07:02:43.116Z,100914.17
2023-03-17T07:05:12.566Z,100916.47
2023-03-17T07:07:40.940Z,100919.11
2023-03-17T07:10:10.366Z,100916.05
2023-03-17T07:12:39.719Z,100909.02
2023-03-17T07:15:07.731Z,100905.67
2023-03-17T07:17:35.473Z,100909.77
2023-03-17T07:20:03.708Z,100913.44
2023-03-17T07:22:31.841Z,100915.11
2023-03-17T07:25:00.666Z,100913.75
2023-03-17T07:27:31.114Z,100913.27
2023-03-17T07:30:02.226Z,100911.39
2023-03-17T07:32:30.677Z,100904.98
2023-03-17T07:34:59.619Z,100906.77
2023-03-17T07:37:27.355Z,100907.16
2023-03-17T07:39:56.024Z,100905.88
2023-03-17T07:42:23.712Z,100904.45
2023-03-17T07:44:51.450Z,100913.84
2023-03-17T07:47:19.123Z,100914.20
2023-03-17T07:49:47.484Z,100912.22
2023-03-17T07:52:15.226Z,100921.80
2023-03-17T07:54:43.389Z,100919.48
2023-03-17T07:57:12.518Z,100919.45
2023-03-17T07:59:41.532Z,100920.70
2023-03-17T08:02:13.967Z,100919.16
2023-03-17T08:04:43.412Z,100919.12
2023-03-17T08:07:11.372Z,100919.26
2023-03-17T08:09:40.822Z,100919.67
2023-03-17T08:12:11.874Z,100921.36
2023-03-17T08:14:43.965Z,100922.63
2023-03-17T08:17:13.456Z,100927.17
2023-03-17T08:19:41.184Z,100929.20
2023-03-17T08:22:09.550Z,100930.15
2023-03-17T08:24:38.333Z,100932.04
2023-03-17T08:27:05.964Z,100930.22
2023-03-17T08:29:33.664Z,100927.97
2023-03-17T08:32:01.712Z,100924.69
2023-03-17T08:34:29.886Z,100920.58
2023-03-17T08:36:57.957Z,100925.89
2023-03-17T08:39:25.613Z,100921.00
2023-03-17T08:41:53.519Z,100908.75
2023-03-17T08:44:21.755Z,100912.17
2023-03-17T08:46:50.107Z,100913.52
2023-03-17T08:49:18.105Z,100910.95
2023-03-17T08:51:46.184Z,100909.10
2023-03-17T08:54:13.977Z,100908.27
2023-03-17T08:56:42.436Z,100908.25
2023-03-17T08:59:10.316Z,100922.58
2023-03-17T09:01:40.131Z,100922.18
2023-03-17T09:04:08.814Z,100923.83
2023-03-17T09:06:37.605Z,100928.41
2023-03-17T09:09:05.332Z,100926.27
2023-03-17T09:11:33.267Z,100920.30
2023-03-17T09:14:00.878Z,100912.55
2023-03-17T09:16:30.027Z,100912.29
2023-03-17T09:18:57.678Z,100911.13
2023-03-17T09:21:25.347Z,100901.16
2023-03-17T09:23:52.941Z,100903.63
2023-03-17T09:26:20.726Z,100898.76
2023-03-17T09:28:49.427Z,100893.39
2023-03-17T09:31:17.150Z,100894.66
2023-03-17T09:33:45.528Z,100899.40
2023-03-17T09:36:14.785Z,100892.97
2023-03-17T09:38:42.742Z,100895.30
2023-03-17T09:41:20.045Z,100893.50
2023-03-17T09:44:01.882Z,100895.23
2023-03-17T09:46:46.160Z,100898.95
2023-03-17T09:49:20.529Z,100896.42
2023-03-17T09:51:49.418Z,100897.28
2023-03-17T09:54:20.402Z,100891.05
2023-03-17T09:56:50.658Z,100884.06
2023-03-17T09:59:27.845Z,100874.27
2023-03-17T10:01:56.068Z,100869.67
2023-03-17T10:04:24.208Z,100869.20
2023-03-17T10:06:52.682Z,100865.58
2023-03-17T10:09:27.192Z,100856.40
2023-03-17T10:12:11.996Z,100855.80
2023-03-17T10:14:46.205Z,100858.48
2023-03-17T10:17:16.628Z,100855.80
2023-03-17T10:19:44.286Z,100851.66
2023-03-17T10:22:12.056Z,100848.23
2023-03-17T10:24:43.358Z,100846.60
2023-03-17T10:27:12.916Z,100838.33
2023-03-17T10:29:41.570Z,100838.14
2023-03-17T10:32:13.511Z,100830.55
2023-03-17T10:34:47.063Z,100823.91
2023-03-17T10:37:18.066Z,100813.75
2023-03-17T10:39:49.643Z,100811.11
2023-03-17T10:42:35.510Z,100808.20
2023-03-17T10:45:20.749Z,100803.74
2023-03-17T10:47:50.206Z,100796.23
2023-03-17T10:50:23.089Z,100799.08
2023-03-17T10:52:57.802Z,100790.98
2023-03-17T10:55:28.080Z,100789.91
2023-03-17T10:58:01.059Z,100782.06
2023-03-17T11:00:30.204Z,100788.31
2023-03-17T11:02:59.366Z,100789.53
2023-03-17T11:05:29.090Z,100783.02
2023-03-17T11:07:58.547Z,100783.19
2023-03-17T11:10:27.360Z,100778.40
2023-03-17T11:13:04.494Z,100777.70
2023-03-17T11:15:33.815Z,100782.23
2023-03-17T11:18:03.205Z,100786.89
2023-03-17T11:20:46.860Z,100792.80
2023-03-17T11:23:23.519Z,100792.48
2023-03-17T11:25:58.103Z,100783.21
2023-03-17T11:28:28.490Z,100761.28
2023-03-17T11:31:15.108Z,100741.08
2023-03-17T11:33:49.555Z,100739.97
2023-03-17T11:36:19.988Z,100736.42
2023-03-17T11:39:07.070Z,100740.46
2023-03-17T11:41:41.154Z,100745.69
2023-03-17T11:44:24.682Z,100743.55
2023-03-17T11:47:00.448Z,100727.58
2023-03-17T11:49:32.341Z,100733.74
2023-03-17T11:52:16.412Z,100733.05
2023-03-17T11:54:44.567Z,100720.21
2023-03-17T11:57:35.699Z,100708.36
2023-03-17T12:00:07.134Z,100714.52
2023-03-17T12:02:43.542Z,100722.55
2023-03-17T12:05:15.402Z,100706.85
2023-03-17T12:07:59.047Z,100706.23
2023-03-17T12:10:43.739Z,100690.41
2023-03-17T12:13:35.514Z,100688.25
2023-03-17T12:16:06.813Z,100695.27
2023-03-17T12:18:39.032Z,100689.70
2023-03-17T12:21:14.946Z,100684.16
2023-03-17T12:24:04.053Z,100682.67
2023-03-17T12:26:37.108Z,100676.70
2023-03-17T12:29:04.948Z,100669.42
2023-03-17T12:31:37.262Z,100662.02
2023-03-17T12:34:21.603Z,100659.48
2023-03-17T12:36:49.491Z,100654.23
2023-03-17T12:39:33.326Z,100641.72
2023-03-17T12:42:06.937Z,100638.02
2023-03-17T12:44:50.487Z,100627.05
2023-03-17T12:47:21.202Z,100607.34
2023-03-17T12:50:05.822Z,100611.73
2023-03-17T12:52:39.413Z,100609.83
2023-03-17T12:55:12.051Z,100602.98
2023-03-17T12:57:41.540Z,100592.55
2023-03-17T13:00:35.854Z,100593.77
2023-03-17T13:03:12.104Z,100583.30
2023-03-17T13:05:45.093Z,100561.70
2023-03-17T13:08:16.717Z,100583.48
2023-03-17T13:10:47.999Z,100583.93
2023-03-17T13:13:31.646Z,100573.55
2023-03-17T13:16:00.276Z,100571.59
2023-03-17T13:18:34.004Z,100562.13
2023-03-17T13:21:02.161Z,100562.23
2023-03-17T13:23:50.806Z,100547.07
2023-03-17T13:26:20.968Z,100549.92
2023-03-17T13:28:50.160Z,100553.14
2023-03-17T13:31:20.979Z,100532.60
2023-03-17T13:33:53.109Z,100516.68
2023-03-17T13:36:21.173Z,100521.81
2023-03-17T13:39:20.065Z,100514.52
2023-03-17T13:42:01.080Z,100495.77
2023-03-17T13:44:33.387Z,100481.69
2023-03-17T13:47:17.331Z,100519.40
2023-03-17T13:49:47.161Z,100499.15
2023-03-17T13:52:16.229Z,100506.47
2023-03-17T13:54:49.820Z,100526.29
2023-03-17T13:57:26.238Z,100493.29
2023-03-17T14:00:11.225Z,100479.52
2023-03-17T14:02:39.668Z,100463.41
2023-03-17T14:05:08.660Z,100502.19
2023-03-17T14:07:42.803Z,100487.33
2023-03-17T14:10:19.122Z,100441.42
2023-03-17T14:12:51.881Z,100462.22
2023-03-17T14:15:22.646Z,100502.12
2023-03-17T14:17:52.277Z,100508.16
2023-03-17T14:20:24.618Z,100504.83
2023-03-17T14:22:57.337Z,100474.48
2023-03-17T14:25:26.530Z,100415.74
2023-03-17T14:27:56.794Z,100420.53
2023-03-17T14:30:26.440Z,100449.20
2023-03-17T14:33:06.489Z,100443.81
2023-03-17T14:35:38.899Z,100439.84
2023-03-17T14:38:18.735Z,100415.89
2023-03-17T14:40:46.488Z,100442.00
2023-03-17T14:43:14.816Z,100432.59
2023-03-17T14:45:43.043Z,100458.39
2023-03-17T14:48:14.820Z,100442.66
2023-03-17T14:51:05.084Z,100435.59
2023-03-17T14:53:39.297Z,100436.29
2023-03-17T14:56:07.270Z,100436.01
2023-03-17T14:58:44.625Z,100425.42
2023-03-17T15:01:17.176Z,100430.86
2023-03-17T15:04:01.815Z,100429.81
2023-03-17T15:06:30.362Z,100421.38
2023-03-17T15:08:59.376Z,100415.02
2023-03-17T15:11:28.642Z,100414.05
2023-03-17T15:14:03.716Z,100413.12
2023-03-17T15:16:34.372Z,100415.35
2023-03-17T15:19:27.665Z,100417.85
2023-03-17T15:21:59.714Z,100416.60
2023-03-17T15:24:44.056Z,100415.52
2023-03-17T15:27:16.015Z,100418.84
2023-03-17T15:29:44.268Z,100409.21
2023-03-17T15:32:16.586Z,100411.13
2023-03-17T15:34:44.255Z,100403.27
2023-03-17T15:37:19.690Z,100404.55
2023-03-17T15:39:48.299Z,100403.44
2023-03-17T15:42:19.264Z,100403.52
2023-03-17T15:44:47.099Z,100400.64
2023-03-17T15:47:16.599Z,100403.48
2023-03-17T15:49:45.039Z,100406.16
2023-03-17T15:52:25.987Z,100409.13
2023-03-17T15:54:58.335Z,100411.90
2023-03-17T15:57:27.252Z,100413.77
2023-03-17T15:59:54.993Z,100414.06
2023-03-17T16:02:38.650Z,100420.02
2023-03-17T16:05:22.624Z,100419.58
2023-03-17T16:07:50.227Z,100414.36
2023-03-17T16:10:23.135Z,100411.58
2023-03-17T16:12:51.203Z,100416.44
2023-03-17T16:15:35.135Z,100419.16
2023-03-17T16:18:05.115Z,100416.59
2023-03-17T16:20:48.944Z,100416.44
2023-03-17T16:23:18.086Z,100422.13
2023-03-17T16:25:46.309Z,100420.94
2023-03-17T16:28:18.538Z,100421.62
2023-03-17T16:30:47.341Z,100423.70
2023-03-17T16:33:16.713Z,100426.02
2023-03-17T16:35:44.804Z,100426.02
2023-03-17T16:38:13.848Z,100423.62
2023-03-17T16:40:41.719Z,100422.38
2023-03-17T16:43:24.998Z,100424.27
2023-03-17T16:45:54.522Z,100428.91
2023-03-17T16:48:22.422Z,100426.63
2023-03-17T16:50:50.819Z,100426.40
2023-03-17T16:53:18.484Z,100433.33
2023-03-17T16:55:46.195Z,100430.90
2023-03-17T16:58:15.555Z,100431.53
2023-03-17T17:00:43.261Z,100427.70
2023-03-17T17:03:11.205Z,100423.77
2023-03-17T17:05:39.042Z,100425.84
2023-03-17T17:08:06.716Z,100429.83
2023-03-17T17:10:35.535Z,100431.20
2023-03-17T17:13:05.858Z,100426.12
2023-03-17T17:15:36.362Z,100429.02
2023-03-17T17:18:08.222Z,100431.50
2023-03-17T17:20:40.516Z,100431.14
2023-03-17T17:23:12.782Z,100426.12
2023-03-17T17:25:41.213Z,100421.11
2023-03-17T17:28:09.315Z,100423.54
2023-03-17T17:30:37.208Z,100424.64
2023-03-17T17:33:05.227Z,100426.47
2023-03-17T17:35:33.390Z,100426.66
2023-03-17T17:38:02.147Z,100430.42
2023-03-17T17:40:30.941Z,100436.89
2023-03-17T17:42:59.274Z,100437.63
2023-03-17T17:45:26.967Z,100451.30
2023-03-17T17:47:54.636Z,100451.48
2023-03-17T17:50:28.426Z,100453.23
2023-03-17T17:53:02.533Z,100452.39
2023-03-17T17:55:30.375Z,100447.83
2023-03-17T17:57:58.068Z,100440.05
2023-03-17T18:00:26.038Z,100435.10
2023-03-17T18:02:53.767Z,100431.73
2023-03-17T18:05:21.403Z,100429.23
2023-03-17T18:07:49.269Z,100425.45
2023-03-17T18:10:19.569Z,100428.89
2023-03-17T18:12:47.231Z,100424.13
2023-03-17T18:15:15.073Z,100425.63
2023-03-17T18:17:43.559Z,100426.88
2023-03-17T18:20:12.876Z,100426.59
2023-03-17T18:22:40.864Z,100427.16
2023-03-17T18:25:10.131Z,100435.16
2023-03-17T18:27:38.504Z,100433.33
2023-03-17T18:30:08.525Z,100436.09
2023-03-17T18:32:37.131Z,100439.20
2023-03-17T18:35:07.959Z,100442.73
2023-03-17T18:37:36.336Z,100446.27
2023-03-17T18:40:14.455Z,100447.74
2023-03-17T18:42:44.152Z,100443.86
2023-03-17T18:45:12.397Z,100440.21
2023-03-17T18:47:41.588Z,100438.55
2023-03-17T18:50:11.652Z,100438.96
2023-03-17T18:52:41.070Z,100435.96
2023-03-17T18:55:10.062Z,100433.70
2023-03-17T18:57:37.723Z,100430.23
2023-03-17T19:00:06.288Z,100429.79
2023-03-17T19:02:34.499Z,100431.51
2023-03-17T19:05:02.496Z,100432.16
2023-03-17T19:07:30.514Z,100430.47
2023-03-17T19:09:59.149Z,100437.28
2023-03-17T19:12:26.814Z,100434.25
2023-03-17T19:14:54.834Z,100430.92
2023-03-17T19:17:22.728Z,100427.81
2023-03-17T19:19:50.484Z,100425.61
2023-03-17T19:22:18.578Z,100432.28
2023-03-17T19:24:47.851Z,100430.92
2023-03-17T19:27:16.174Z,100427.77
2023-03-17T19:29:43.913Z,100428.77
2023-03-17T19:32:11.519Z,100426.86
2023-03-17T19:34:39.202Z,100429.36
2023-03-17T19:37:06.883Z,100436.13
2023-03-17T19:39:34.575Z,100436.06
2023-03-17T19:42:02.166Z,100433.60
2023-03-17T19:44:29.865Z,100434.70
2023-03-17T19:46:57.549Z,100433.98
2023-03-17T19:49:26.121Z,100438.91
2023-03-17T19:51:54.102Z,100440.45
2023-03-17T19:54:23.413Z,100437.73
2023-03-17T19:56:51.753Z,100440.23
2023-03-17T19:59:19.850Z,100434.39
2023-03-17T20:01:48.999Z,100434.06
2023-03-17T20:04:21.810Z,100431.70
2023-03-17T20:06:55.123Z,100437.46
2023-03-17T20:09:24.644Z,100438.68
2023-03-17T20:11:56.484Z,100442.59
2023-03-17T20:14:24.191Z,100444.98
2023-03-17T20:16:53.343Z,100439.02
2023-03-17T20:19:21.424Z,100438.02
2023-03-17T20:21:49.053Z,100435.24
2023-03-17T20:24:17.450Z,100435.76
2023-03-17T20:26:45.373Z,100439.63
2023-03-17T20:29:14.227Z,100438.48
2023-03-17T20:31:42.614Z,100435.64
2023-03-17T20:34:11.617Z,100433.63
2023-03-17T20:36:42.396Z,100441.28
2023-03-17T20:39:14.748Z,100438.39
2023-03-17T20:41:42.480Z,100442.08
2023-03-17T20:44:10.149Z,100442.14
2023-03-17T20:46:38.895Z,100445.86
2023-03-17T20:49:07.398Z,100446.20
2023-03-17T20:51:35.463Z,100450.79
2023-03-17T20:54:03.673Z,100453.67
2023-03-17T20:56:33.769Z,100451.54
2023-03-17T20:59:04.949Z,100448.63
2023-03-17T21:01:33.878Z,100452.84
2023-03-17T21:04:01.691Z,100448.79
2023-03-17T21:06:29.400Z,100449.77
2023-03-17T21:08:57.713Z,100447.91
2023-03-17T21:11:26.712Z,100448.88
2023-03-17T21:13:54.329Z,100444.23
2023-03-17T21:16:25.107Z,100435.89
2023-03-17T21:18:53.072Z,100435.38
2023-03-17T21:21:21.599Z,100434.16
2023-03-17T21:23:49.277Z,100433.11
2023-03-17T21:26:18.322Z,100435.86
2023-03-17T21:28:46.626Z,100437.15
2023-03-17T21:31:15.998Z,100431.27
2023-03-17T21:33:44.376Z,100425.82
2023-03-17T21:36:12.267Z,100425.38
2023-03-17T21:38:39.996Z,100423.20
2023-03-17T21:41:23.612Z,100423.08
2023-03-17T21:43:51.272Z,100421.88
2023-03-17T21:46:18.919Z,100424.09
2023-03-17T21:48:46.529Z,100421.06
2023-03-17T21:51:14.156Z,100417.39
2023-03-17T21:53:41.804Z,100423.66
2023-03-17T21:56:12.334Z,100423.05
2023-03-17T21:58:40.712Z,100426.04
2023-03-17T22:01:09.367Z,100424.06
2023-03-17T22:03:39.450Z,100420.61
2023-03-17T22:06:07.889Z,100420.64
2023-03-17T22:08:35.728Z,100417.86
2023-03-17T22:11:07.453Z,100414.59
2023-03-17T22:13:35.346Z,100409.80
2023-03-17T22:16:04.253Z,100409.98
2023-03-17T22:18:32.352Z,100409.91
2023-03-17T22:21:00.161Z,100407.55
2023-03-17T22:23:28.983Z,100405.48
2023-03-17T22:25:57.389Z,100403.05
2023-03-17T22:28:25.082Z,100408.45
2023-03-17T22:30:52.700Z,100403.37
2023-03-17T22:33:20.289Z,100398.05
2023-03-17T22:35:48.134Z,100403.05
2023-03-17T22:38:15.880Z,100401.45
2023-03-17T22:40:43.581Z,100406.09
2023-03-17T22:43:12.031Z,100408.36
2023-03-17T22:45:39.660Z,100409.30
2023-03-17T22:48:07.254Z,100407.70
2023-03-17T22:50:34.862Z,100405.48
2023-03-17T22:53:02.506Z,100409.14
2023-03-17T22:55:30.365Z,100409.20
2023-03-17T22:57:57.940Z,100407.31
2023-03-17T23:00:25.578Z,100408.17
2023-03-17T23:02:53.246Z,100407.60
2023-03-17T23:05:21.117Z,100407.98
2023-03-17T23:07:51.068Z,100407.08
2023-03-17T23:10:24.556Z,100407.33
2023-03-17T23:12:52.535Z,100405.13
2023-03-17T23:15:21.134Z,100410.48
2023-03-17T23:17:48.919Z,100410.13
2023-03-17T23:20:17.425Z,100409.08
2023-03-17T23:22:45.003Z,100408.14
2023-03-17T23:25:13.638Z,100406.86
2023-03-17T23:27:41.742Z,100403.17
2023-03-17T23:30:11.785Z,100401.20
2023-03-17T23:32:40.673Z,100400.67
2023-03-17T23:35:09.267Z,100395.68
2023-03-17T23:37:37.229Z,100394.80
2023-03-17T23:40:06.290Z,100394.35
2023-03-17T23:42:33.892Z,100392.13
2023-03-17T23:45:02.172Z,100391.17
2023-03-17T23:47:30.009Z,100391.08
2023-03-17T23:49:57.706Z,100399.48
2023-03-17T23:52:25.642Z,100392.77
2023-03-17T23:54:53.333Z,100390.90
2023-03-17T23:57:21.476Z,100390.60
2023-03-17T23:59:49.086Z,100385.61
